Time;durP1;ratioP1;P1;durP2;ratioP2;P2;SDS_P1;SDS_P2;PMS_P1;PMS_P2;Temp;Humidity;BMP_temperature;BMP_pressure;BME280_temperature;BME280_humidity;BME280_pressure;Samples;Min_cycle;Max_cycle;Signal;HPM_P1;HPM_P2
2023/10/14 00:01:27;;;;;;;3.50;0.57;;;;;;;13.74;100.00;100151.91;6219322;23;20020;-77
2023/10/14 00:03:55;;;;;;;2.63;0.82;;;;;;;13.69;100.00;100159.41;6219711;23;20462;-78
2023/10/14 00:06:23;;;;;;;6.18;1.23;;;;;;;13.66;100.00;100165.72;6218967;23;20024;-78
2023/10/14 00:11:21;;;;;;;8.43;0.88;;;;;;;13.59;100.00;100178.78;6218409;23;20017;-77
2023/10/14 00:13:48;;;;;;;2.90;0.98;;;;;;;13.50;100.00;100201.06;6219994;23;20017;-76
2023/10/14 00:16:35;;;;;;;6.10;0.93;;;;;;;13.44;100.00;100213.66;6219579;23;20076;-76
2023/10/14 00:19:04;;;;;;;3.00;0.70;;;;;;;13.37;100.00;100235.44;6193688;23;20096;-77
2023/10/14 00:21:34;;;;;;;1.52;0.90;;;;;;;13.37;100.00;100240.78;6219380;23;20025;-78
2023/10/14 00:24:04;;;;;;;3.65;1.02;;;;;;;13.34;100.00;100244.41;6193117;23;20080;-77
2023/10/14 00:26:31;;;;;;;4.65;1.20;;;;;;;13.32;100.00;100241.47;6191594;23;20463;-77
2023/10/14 00:29:17;;;;;;;5.95;1.55;;;;;;;13.33;100.00;100245.59;6220197;23;20013;-77
2023/10/14 00:31:45;;;;;;;4.97;1.20;;;;;;;13.26;100.00;100249.41;6192972;23;20017;-77
2023/10/14 00:34:15;;;;;;;6.93;1.35;;;;;;;13.21;100.00;100260.78;6219806;23;20024;-77
2023/10/14 00:36:43;;;;;;;7.00;1.10;;;;;;;13.20;100.00;100263.91;6192728;23;20027;-77
2023/10/14 00:39:12;;;;;;;7.35;1.17;;;;;;;13.17;100.00;100272.91;6218720;23;20638;-77
2023/10/14 00:41:44;;;;;;;4.82;1.08;;;;;;;13.16;100.00;100276.78;6193293;23;20024;-77
2023/10/14 00:44:11;;;;;;;8.95;1.40;;;;;;;13.15;100.00;100289.38;6217559;23;20407;-77
2023/10/14 00:46:42;;;;;;;4.05;0.93;;;;;;;13.12;100.00;100298.31;6167790;23;20447;-77
2023/10/14 00:49:11;;;;;;;4.85;1.00;;;;;;;13.08;100.00;100302.41;6219617;23;20070;-77
2023/10/14 00:51:42;;;;;;;6.97;1.55;;;;;;;13.07;100.00;100308.94;6193053;23;20013;-77
2023/10/14 00:54:18;;;;;;;2.58;1.00;;;;;;;13.03;100.00;100311.81;6192734;23;20455;-77
2023/10/14 00:56:46;;;;;;;8.05;1.20;;;;;;;13.00;100.00;100310.06;6219725;23;20114;-77
2023/10/14 00:59:14;;;;;;;5.85;1.35;;;;;;;12.98;100.00;100320.47;6192896;23;20440;-77
2023/10/14 01:01:58;;;;;;;10.20;1.15;;;;;;;12.97;100.00;100322.41;6192799;23;20108;-77
2023/10/14 01:04:32;;;;;;;3.60;1.00;;;;;;;12.90;100.00;100328.13;6167447;23;20395;-77
2023/10/14 01:07:13;;;;;;;6.90;1.48;;;;;;;12.86;100.00;100335.59;6219823;23;20013;-77
2023/10/14 01:12:18;;;;;;;6.15;1.10;;;;;;;12.83;100.00;100349.16;6192373;23;20025;-77
2023/10/14 01:14:52;;;;;;;4.25;1.30;;;;;;;12.78;100.00;100349.84;6192966;23;20052;-78
2023/10/14 01:17:32;;;;;;;3.63;1.17;;;;;;;12.77;100.00;100359.03;6219326;23;20017;-77
2023/10/14 01:20:18;;;;;;;10.52;1.35;;;;;;;12.73;100.00;100361.91;6219719;23;20050;-77
2023/10/14 01:22:51;;;;;;;4.55;1.52;;;;;;;12.70;100.00;100368.16;6219009;23;20017;-77
2023/10/14 01:25:19;;;;;;;3.17;1.40;;;;;;;12.70;100.00;100370.84;6219410;23;20017;-77
2023/10/14 01:27:46;;;;;;;4.55;1.17;;;;;;;12.69;100.00;100372.78;6192690;23;20552;-77
2023/10/14 01:30:25;;;;;;;4.38;1.50;;;;;;;12.66;100.00;100380.97;6219370;23;20443;-77
2023/10/14 01:32:56;;;;;;;6.75;1.50;;;;;;;12.66;100.00;100386.31;6167855;23;20097;-77
2023/10/14 01:35:31;;;;;;;4.47;1.50;;;;;;;12.66;100.00;100384.38;6218946;23;20072;-77
2023/10/14 01:37:59;;;;;;;5.03;1.50;;;;;;;12.62;100.00;100391.09;6192434;23;20024;-77
2023/10/14 01:42:58;;;;;;;5.57;1.52;;;;;;;12.56;100.00;100403.63;6219545;23;20021;-77
2023/10/14 01:45:29;;;;;;;8.00;1.50;;;;;;;12.47;100.00;100409.78;6191706;23;20076;-77
2023/10/14 01:50:44;;;;;;;8.93;1.70;;;;;;;12.42;100.00;100415.03;6218696;23;20013;-77
2023/10/14 01:53:12;;;;;;;5.28;1.42;;;;;;;12.34;100.00;100412.00;6191834;23;20020;-77
2023/10/14 01:55:42;;;;;;;8.57;1.77;;;;;;;12.27;100.00;100421.09;6219409;23;20498;-77
2023/10/14 01:58:32;;;;;;;7.60;1.63;;;;;;;12.21;100.00;100425.59;6192635;23;20021;-77
2023/10/14 02:01:23;;;;;;;6.55;1.77;;;;;;;12.11;100.00;100434.84;6192183;23;20017;-77
2023/10/14 02:03:48;;;;;;;8.13;2.05;;;;;;;12.07;100.00;100444.22;6219643;23;20025;-77
2023/10/14 02:08:47;;;;;;;4.20;1.67;;;;;;;11.96;100.00;100460.78;6192575;23;20362;-77
2023/10/14 02:11:20;;;;;;;6.88;1.60;;;;;;;11.92;100.00;100457.53;6192384;23;20136;-77
2023/10/14 02:13:51;;;;;;;5.47;1.45;;;;;;;11.90;100.00;100471.34;6219395;23;20037;-77
2023/10/14 02:16:29;;;;;;;7.73;1.30;;;;;;;11.88;100.00;100478.31;6192255;23;20025;-77
2023/10/14 02:19:17;;;;;;;4.30;1.30;;;;;;;11.83;100.00;100476.25;6193024;23;20017;-77
2023/10/14 02:21:43;;;;;;;12.75;1.98;;;;;;;11.82;100.00;100485.44;6191891;23;20092;-77
2023/10/14 02:24:10;;;;;;;8.13;1.40;;;;;;;11.77;100.00;100494.06;6192068;23;20865;-77
2023/10/14 02:26:38;;;;;;;8.50;1.88;;;;;;;11.74;100.00;100495.69;6192324;23;20425;-77
2023/10/14 02:29:07;;;;;;;9.77;1.60;;;;;;;11.68;100.00;100503.56;6219182;23;20459;-77
2023/10/14 02:31:37;;;;;;;8.15;1.80;;;;;;;11.63;100.00;100512.16;6167279;23;20104;-77
2023/10/14 02:34:06;;;;;;;9.43;2.05;;;;;;;11.56;100.00;100511.78;6192557;23;20017;-77
2023/10/14 02:36:48;;;;;;;3.70;1.50;;;;;;;11.50;100.00;100524.97;6191907;23;20032;-77
2023/10/14 02:39:16;;;;;;;5.95;1.58;;;;;;;11.43;100.00;100529.91;6192020;23;20084;-77
2023/10/14 02:41:58;;;;;;;9.77;1.63;;;;;;;11.38;100.00;100541.16;6167974;23;20359;-77
2023/10/14 02:44:32;;;;;;;12.73;2.15;;;;;;;11.31;100.00;100540.28;6218701;23;20569;-76
2023/10/14 02:47:08;;;;;;;7.22;1.20;;;;;;;11.28;100.00;100543.09;6192270;23;20032;-76
2023/10/14 02:49:38;;;;;;;5.68;1.40;;;;;;;11.22;100.00;100552.88;6218478;23;20037;-77
2023/10/14 02:52:11;;;;;;;4.00;1.33;;;;;;;11.18;100.00;100561.06;6219239;23;20169;-77
2023/10/14 02:54:42;;;;;;;6.53;1.38;;;;;;;11.10;100.00;100567.88;6167527;23;20434;-76
2023/10/14 02:57:13;;;;;;;10.27;1.40;;;;;;;11.01;100.00;100576.63;6218898;23;20021;-77
2023/10/14 03:04:55;;;;;;;7.95;1.42;;;;;;;10.84;100.00;100596.75;6192261;23;20021;-76
2023/10/14 03:07:23;;;;;;;11.00;1.25;;;;;;;10.77;100.00;100602.38;6168008;23;20025;-77
2023/10/14 03:09:51;;;;;;;10.05;1.73;;;;;;;10.73;100.00;100612.44;6220358;23;20013;-77
2023/10/14 03:12:21;;;;;;;9.27;1.67;;;;;;;10.66;100.00;100618.03;6193454;23;20023;-77
2023/10/14 03:14:50;;;;;;;8.43;1.75;;;;;;;10.64;100.00;100623.06;6193508;23;20017;-76
2023/10/14 03:17:25;;;;;;;8.13;1.38;;;;;;;10.56;100.00;100630.59;6192760;23;20446;-76
2023/10/14 03:19:53;;;;;;;6.32;1.52;;;;;;;10.52;100.00;100637.97;6219506;23;20013;-76
2023/10/14 03:22:27;;;;;;;8.13;1.20;;;;;;;10.51;100.00;100641.81;6219461;23;20451;-77
2023/10/14 03:25:04;;;;;;;6.70;1.90;;;;;;;10.47;100.00;100656.44;6220375;23;20025;-76
2023/10/14 03:27:32;;;;;;;12.38;1.80;;;;;;;10.44;100.00;100657.31;6192939;23;20498;-76
2023/10/14 03:29:59;;;;;;;7.88;1.83;;;;;;;10.39;100.00;100660.59;6193378;23;20021;-76
2023/10/14 03:32:32;;;;;;;8.05;2.00;;;;;;;10.34;100.00;100665.31;6192495;23;20392;-76
2023/10/14 03:35:11;;;;;;;6.05;1.27;;;;;;;10.34;100.00;100680.53;6219504;23;20514;-75
2023/10/14 03:37:44;;;;;;;6.93;1.60;;;;;;;10.34;100.00;100680.53;6168387;23;20025;-76
2023/10/14 03:43:10;;;;;;;6.50;1.42;;;;;;;10.25;100.00;100688.47;6220040;23;20352;-75
2023/10/14 03:45:53;;;;;;;8.75;1.50;;;;;;;10.24;100.00;100701.03;6192989;23;20443;-76
2023/10/14 03:49:06;;;;;;;4.70;1.30;;;;;;;10.23;100.00;100701.47;6218425;23;20021;-76
2023/10/14 03:51:10;;;;;;;8.38;1.20;;;;;;;10.20;100.00;100703.09;6215054;23;20021;-76
2023/10/14 03:53:38;;;;;;;13.15;1.60;;;;;;;10.15;100.00;100706.28;6219950;23;20019;-76
2023/10/14 03:56:04;;;;;;;7.35;1.38;;;;;;;10.12;100.00;100709.06;6220365;23;20372;-75
2023/10/14 03:58:31;;;;;;;7.45;1.00;;;;;;;10.08;100.00;100714.50;6219996;23;20078;-76
2023/10/14 04:01:02;;;;;;;5.47;1.27;;;;;;;10.04;100.00;100714.66;6193686;23;20021;-76
2023/10/14 04:03:39;;;;;;;10.57;1.37;;;;;;;10.03;100.00;100725.72;6218871;23;20017;-75
2023/10/14 04:06:09;;;;;;;6.53;1.23;;;;;;;10.03;100.00;100723.06;6219491;23;20044;-76
2023/10/14 04:08:41;;;;;;;6.63;1.55;;;;;;;10.00;100.00;100726.59;6219820;23;20021;-75
2023/10/14 04:11:13;;;;;;;6.25;1.45;;;;;;;9.95;100.00;100729.81;6219271;23;20013;-76
2023/10/14 04:13:42;;;;;;;11.40;1.60;;;;;;;9.89;100.00;100731.56;6219506;23;20430;-76
2023/10/14 04:16:12;;;;;;;7.93;1.10;;;;;;;9.86;100.00;100740.41;6193398;23;20422;-76
2023/10/14 04:18:43;;;;;;;12.30;1.67;;;;;;;9.83;100.00;100749.25;6218972;23;20021;-75
2023/10/14 04:21:31;;;;;;;7.40;1.70;;;;;;;9.82;100.00;100761.81;6219645;23;20036;-76
2023/10/14 04:24:20;;;;;;;6.90;1.83;;;;;;;9.77;100.00;100758.94;6220306;23;20072;-76
2023/10/14 04:26:49;;;;;;;8.65;1.63;;;;;;;9.77;100.00;100764.25;6193900;23;20454;-76
2023/10/14 04:29:34;;;;;;;6.93;1.40;;;;;;;9.74;100.00;100773.09;6219517;23;20586;-76
2023/10/14 04:32:13;;;;;;;6.40;1.60;;;;;;;9.73;100.00;100768.97;6192718;23;20020;-76
2023/10/14 04:34:46;;;;;;;4.78;1.38;;;;;;;9.70;100.00;100778.53;6193058;23;20232;-76
2023/10/14 04:37:20;;;;;;;12.05;1.58;;;;;;;9.67;100.00;100774.81;6219542;23;20077;-76
2023/10/14 04:39:48;;;;;;;11.05;1.40;;;;;;;9.65;100.00;100776.44;6193681;23;20018;-77
2023/10/14 04:44:45;;;;;;;4.32;1.13;;;;;;;9.60;100.00;100796.31;6219656;23;20052;-76
2023/10/14 04:47:19;;;;;;;3.95;1.45;;;;;;;9.59;100.00;100796.78;6192627;23;20088;-76
2023/10/14 04:49:51;;;;;;;7.05;1.40;;;;;;;9.57;100.00;100799.88;6168432;23;20419;-76
2023/10/14 04:52:18;;;;;;;7.95;1.60;;;;;;;9.59;100.00;100804.75;6219542;23;20017;-76
2023/10/14 04:55:08;;;;;;;5.60;1.00;;;;;;;9.57;100.00;100809.75;6193118;23;20378;-77
2023/10/14 04:57:40;;;;;;;9.18;1.20;;;;;;;9.54;100.00;100819.34;6167995;23;20028;-76
2023/10/14 05:00:19;;;;;;;3.42;1.02;;;;;;;9.54;100.00;100823.91;6192353;23;20025;-76
2023/10/14 05:02:45;;;;;;;8.65;1.55;;;;;;;9.51;100.00;100824.75;6193369;23;20027;-76
2023/10/14 05:05:19;;;;;;;4.80;1.35;;;;;;;9.47;100.00;100830.19;6192922;23;20017;-76
2023/10/14 05:07:45;;;;;;;9.57;1.55;;;;;;;9.43;100.00;100837.53;6219745;23;20387;-76
2023/10/14 05:10:12;;;;;;;9.13;1.45;;;;;;;9.42;100.00;100851.97;6219190;23;20097;-76
2023/10/14 05:12:51;;;;;;;5.80;1.30;;;;;;;9.41;100.00;100847.84;6219185;23;20013;-76
2023/10/14 05:15:21;;;;;;;11.70;2.05;;;;;;;9.40;100.00;100856.97;6218900;23;20013;-77
2023/10/14 05:18:00;;;;;;;6.47;1.35;;;;;;;9.37;100.00;100855.19;6219656;23;20088;-77
2023/10/14 05:23:19;;;;;;;6.30;1.10;;;;;;;9.33;100.00;100870.47;6219298;23;20013;-76
2023/10/14 05:25:48;;;;;;;2.97;1.00;;;;;;;9.27;100.00;100869.53;6192979;23;20458;-76
2023/10/14 05:28:16;;;;;;;3.65;1.05;;;;;;;9.24;100.00;100873.03;6219248;23;20013;-76
2023/10/14 05:30:48;;;;;;;2.50;1.20;;;;;;;9.23;100.00;100877.59;6192298;23;20021;-76
2023/10/14 05:33:14;;;;;;;5.18;1.38;;;;;;;9.21;100.00;100879.94;6219106;23;20450;-77
2023/10/14 05:35:42;;;;;;;10.25;1.48;;;;;;;9.19;100.00;100884.97;6219203;23;20455;-76
2023/10/14 05:38:14;;;;;;;7.25;1.60;;;;;;;9.18;100.00;100888.03;6218824;23;20092;-76
2023/10/14 05:40:41;;;;;;;;;;;;;;;9.18;100.00;100885.38;6219814;23;20028;-77
2023/10/14 05:43:07;;;;;;;3.85;1.38;;;;;;;9.15;100.00;100892.28;6219256;23;19920;-77
2023/10/14 05:45:38;;;;;;;5.53;1.00;;;;;;;9.14;100.00;100895.38;6218847;23;20025;-77
2023/10/14 05:48:07;;;;;;;13.05;1.50;;;;;;;9.12;100.00;100909.06;6193380;23;20362;-79
2023/10/14 05:50:37;;;;;;;8.15;1.27;;;;;;;9.11;100.00;100907.59;6219281;23;20025;-77
2023/10/14 05:53:07;;;;;;;4.63;1.48;;;;;;;9.09;100.00;100909.91;6193159;23;20017;-77
2023/10/14 05:55:35;;;;;;;8.90;1.33;;;;;;;9.06;100.00;100913.44;6219414;23;20515;-77
2023/10/14 05:58:02;;;;;;;11.90;1.50;;;;;;;9.02;100.00;100924.16;6218695;23;20017;-76
2023/10/14 06:00:29;;;;;;;8.45;1.35;;;;;;;9.00;100.00;100925.75;6218617;23;20028;-76
2023/10/14 06:02:57;;;;;;;6.93;1.40;;;;;;;8.99;100.00;100934.88;6219027;23;20104;-77
2023/10/14 06:05:25;;;;;;;4.43;1.23;;;;;;;8.98;100.00;100944.00;6218496;23;20021;-76
2023/10/14 06:08:05;;;;;;;5.80;1.48;;;;;;;8.96;100.00;100939.13;6192548;23;20017;-78
2023/10/14 06:10:41;;;;;;;5.00;1.20;;;;;;;8.93;100.00;100955.88;6192120;23;20108;-77
2023/10/14 06:13:09;;;;;;;5.25;1.40;;;;;;;8.91;100.00;100962.78;6218553;23;20413;-78
2023/10/14 06:15:40;;;;;;;8.82;1.83;;;;;;;8.91;100.00;100971.50;6219321;23;20013;-80
2023/10/14 06:18:08;;;;;;;8.65;1.38;;;;;;;8.90;100.00;100980.63;6167496;23;20013;-79
2023/10/14 06:20:36;;;;;;;9.20;1.52;;;;;;;8.91;100.00;100981.38;6192782;23;20025;-79
2023/10/14 06:23:02;;;;;;;6.05;1.85;;;;;;;8.93;100.00;100985.09;6192353;23;20451;-79
2023/10/14 06:25:29;;;;;;;9.95;1.67;;;;;;;8.93;100.00;100990.41;6191857;23;20463;-76
2023/10/14 06:27:57;;;;;;;9.18;1.50;;;;;;;8.91;100.00;100992.72;6192207;23;20013;-79
2023/10/14 06:30:29;;;;;;;5.80;1.55;;;;;;;8.92;100.00;100998.78;6218735;23;20471;-76
2023/10/14 06:33:03;;;;;;;8.00;1.73;;;;;;;8.93;100.00;101006.34;6217520;23;20020;-76
2023/10/14 06:35:35;;;;;;;5.70;1.52;;;;;;;8.93;100.00;101009.00;6218487;23;20017;-76
2023/10/14 06:38:04;;;;;;;5.40;1.40;;;;;;;8.96;100.00;101018.03;6219493;23;20041;-77
2023/10/14 06:40:37;;;;;;;10.10;1.70;;;;;;;8.95;100.00;101017.28;6192484;23;20189;-78
2023/10/14 06:43:08;;;;;;;16.73;1.55;;;;;;;8.96;100.00;101026.72;6192216;23;20017;-78
2023/10/14 06:45:37;;;;;;;8.27;1.27;;;;;;;8.95;100.00;101025.25;6218923;23;20076;-78
2023/10/14 06:48:09;;;;;;;7.47;1.27;;;;;;;8.99;100.00;101036.53;6219249;23;20088;-76
2023/10/14 06:50:42;;;;;;;5.25;1.52;;;;;;;9.02;100.00;101037.59;6218887;23;20021;-76
2023/10/14 06:53:09;;;;;;;6.55;1.70;;;;;;;9.03;100.00;101039.81;6219186;23;20084;-76
2023/10/14 06:55:42;;;;;;;12.10;1.50;;;;;;;9.05;100.00;101057.25;6218818;23;20075;-77
2023/10/14 06:58:11;;;;;;;12.70;1.58;;;;;;;9.10;100.00;101056.75;6218243;23;20017;-76
2023/10/14 07:00:39;;;;;;;6.85;1.23;;;;;;;9.14;100.00;101062.69;6218453;23;20399;-76
2023/10/14 07:03:12;;;;;;;8.07;1.58;;;;;;;9.22;100.00;101066.63;6219062;23;20372;-75
2023/10/14 07:05:56;;;;;;;10.13;1.85;;;;;;;9.27;100.00;101074.09;6218460;23;20025;-75
2023/10/14 07:08:25;;;;;;;12.32;1.73;;;;;;;9.35;100.00;101072.72;6218203;23;20017;-75
2023/10/14 07:10:52;;;;;;;6.28;1.23;;;;;;;9.44;100.00;101080.81;6218084;23;20391;-75
2023/10/14 07:13:21;;;;;;;9.13;1.80;;;;;;;9.50;100.00;101081.03;6218704;23;20033;-75
2023/10/14 07:15:51;;;;;;;14.98;1.70;;;;;;;9.57;100.00;101083.50;6218739;23;20447;-77
2023/10/14 07:18:24;;;;;;;9.07;1.67;;;;;;;9.61;100.00;101094.75;6191206;23;20060;-78
2023/10/14 07:20:56;;;;;;;6.70;1.40;;;;;;;9.69;100.00;101093.38;6192045;23;20031;-77
2023/10/14 07:23:23;;;;;;;8.98;1.50;;;;;;;9.77;100.00;101089.34;6191401;23;20427;-78
2023/10/14 07:25:52;;;;;;;6.80;1.10;;;;;;;9.85;100.00;101087.25;6217957;23;20017;-78
2023/10/14 07:28:19;;;;;;;11.15;1.88;;;;;;;9.95;100.00;101091.50;6218106;23;20080;-78
2023/10/14 07:30:49;;;;;;;9.45;1.20;;;;;;;10.04;100.00;101099.56;6218514;23;20017;-78
2023/10/14 07:33:17;;;;;;;6.88;1.63;;;;;;;10.13;100.00;101101.59;6218316;23;20021;-78
2023/10/14 07:35:44;;;;;;;5.30;1.05;;;;;;;10.19;100.00;101111.28;6217980;23;20044;-78
2023/10/14 07:38:11;;;;;;;13.40;1.58;;;;;;;10.27;100.00;101115.22;6218353;23;20024;-78
2023/10/14 07:40:38;;;;;;;11.75;1.85;;;;;;;10.35;100.00;101118.41;6190719;23;20028;-79
2023/10/14 07:43:07;;;;;;;12.50;1.70;;;;;;;10.45;100.00;101129.88;6218470;23;20087;-77
2023/10/14 07:45:42;;;;;;;9.93;1.73;;;;;;;10.50;100.00;101130.09;6190795;23;20076;-78
2023/10/14 07:48:17;;;;;;;6.88;1.63;;;;;;;10.57;100.00;101132.53;6218973;23;20364;-78
2023/10/14 07:50:48;;;;;;;4.68;1.52;;;;;;;10.65;100.00;101141.03;6192532;23;20459;-79
2023/10/14 07:53:24;;;;;;;11.15;2.05;;;;;;;10.73;100.00;101138.88;6192704;23;20017;-79
2023/10/14 07:55:56;;;;;;;11.05;1.80;;;;;;;10.83;100.00;101148.44;6192276;23;20021;-79
2023/10/14 07:58:24;;;;;;;11.98;1.98;;;;;;;10.94;100.00;101154.91;6167486;23;20418;-79
2023/10/14 08:00:52;;;;;;;6.95;1.60;;;;;;;11.03;100.00;101160.31;6193346;23;20017;-77
2023/10/14 08:03:24;;;;;;;11.27;1.77;;;;;;;11.11;100.00;101165.41;6191906;23;20364;-78
2023/10/14 08:05:54;;;;;;;10.38;1.95;;;;;;;11.21;100.00;101153.63;6219737;23;20027;-77
2023/10/14 08:08:22;;;;;;;10.50;1.70;;;;;;;11.29;98.19;101160.94;6218958;23;20043;-78
2023/10/14 08:10:51;;;;;;;13.02;2.00;;;;;;;11.43;100.00;101166.97;6192752;23;20096;-80
2023/10/14 08:13:22;;;;;;;14.68;2.42;;;;;;;11.51;99.44;101176.19;6219606;23;20458;-77
2023/10/14 08:15:50;;;;;;;10.05;2.00;;;;;;;11.60;98.57;101168.25;6219943;23;20013;-79
2023/10/14 08:18:24;;;;;;;6.82;1.67;;;;;;;11.68;98.89;101178.22;6219323;23;20020;-76
2023/10/14 08:20:55;;;;;;;13.48;2.05;;;;;;;11.75;98.57;101177.22;6220007;23;20048;-78
2023/10/14 08:23:28;;;;;;;12.20;2.17;;;;;;;11.84;97.87;101173.91;6218532;23;20447;-78
2023/10/14 08:25:56;;;;;;;7.75;1.65;;;;;;;11.91;97.21;101186.97;6219758;23;20028;-76
2023/10/14 08:28:24;;;;;;;9.40;2.17;;;;;;;11.98;96.96;101189.38;6217144;23;20013;-76
2023/10/14 08:30:51;;;;;;;13.85;2.20;;;;;;;12.10;97.02;101198.47;6219015;23;20052;-76
2023/10/14 08:33:19;;;;;;;8.80;1.80;;;;;;;12.13;96.43;101195.66;6219330;23;20097;-77
2023/10/14 08:35:48;;;;;;;6.25;1.90;;;;;;;12.23;96.71;101196.44;6218272;23;20045;-76
2023/10/14 08:38:17;;;;;;;8.63;2.15;;;;;;;12.32;95.60;101207.16;6191871;23;20092;-76
2023/10/14 08:40:49;;;;;;;10.07;1.95;;;;;;;12.39;94.33;101214.16;6219557;23;20399;-76
2023/10/14 08:43:21;;;;;;;8.07;1.90;;;;;;;12.24;93.39;101209.34;6219495;23;20013;-76
2023/10/14 08:45:48;;;;;;;11.40;1.65;;;;;;;12.29;92.23;101211.47;6219954;23;20068;-76
2023/10/14 08:48:16;;;;;;;6.22;1.55;;;;;;;12.40;92.47;101216.38;6192013;23;20029;-76
2023/10/14 08:50:45;;;;;;;6.22;1.60;;;;;;;12.51;90.89;101215.97;6219346;23;20024;-77
2023/10/14 08:53:14;;;;;;;14.85;1.55;;;;;;;12.62;89.37;101226.97;6219265;23;20020;-76
2023/10/14 08:55:46;;;;;;;12.40;1.92;;;;;;;12.70;90.39;101230.88;6219531;23;20024;-76
2023/10/14 08:58:13;;;;;;;8.85;1.58;;;;;;;12.78;88.58;101226.00;6219566;23;20017;-76
2023/10/14 09:00:43;;;;;;;11.05;1.80;;;;;;;12.87;87.44;101232.06;6219243;23;20116;-77
2023/10/14 09:03:11;;;;;;;8.98;2.15;;;;;;;13.04;88.84;101240.56;6219404;23;20068;-76
2023/10/14 09:05:40;;;;;;;5.85;1.50;;;;;;;13.14;88.34;101242.06;6219174;23;20103;-76
2023/10/14 09:08:09;;;;;;;10.43;1.42;;;;;;;13.22;88.24;101240.59;6219010;23;20032;-76
2023/10/14 09:10:36;;;;;;;14.88;2.55;;;;;;;13.29;86.99;101242.97;6218994;23;20427;-76
2023/10/14 09:13:08;;;;;;;9.02;1.73;;;;;;;13.33;83.79;101246.25;6193213;23;20084;-77
2023/10/14 09:15:40;;;;;;;4.95;1.92;;;;;;;13.30;82.64;101254.41;6219354;23;20482;-76
2023/10/14 09:18:18;;;;;;;11.13;2.05;;;;;;;13.35;82.30;101248.47;6167698;23;20021;-76
2023/10/14 09:20:53;;;;;;;10.18;1.73;;;;;;;13.40;81.13;101249.81;6192679;23;20021;-77
2023/10/14 09:26:04;;;;;;;8.90;2.00;;;;;;;13.35;81.26;101261.84;6192782;23;20348;-77
2023/10/14 09:28:33;;;;;;;7.28;1.75;;;;;;;13.36;80.40;101255.31;6219113;23;20036;-76
2023/10/14 09:31:02;;;;;;;15.60;1.95;;;;;;;13.45;81.45;101265.28;6192517;23;20112;-76
2023/10/14 09:33:34;;;;;;;12.88;2.22;;;;;;;13.53;78.33;101256.50;6192393;23;20021;-76
2023/10/14 09:36:05;;;;;;;9.27;1.60;;;;;;;13.67;80.53;101263.91;6219024;23;20451;-76
2023/10/14 09:38:32;;;;;;;6.97;1.63;;;;;;;13.57;77.63;101267.06;6217924;23;20426;-76
2023/10/14 09:41:04;;;;;;;12.70;1.60;;;;;;;13.41;77.58;101272.69;6219856;23;20028;-76
2023/10/14 09:43:32;;;;;;;6.70;1.65;;;;;;;13.33;78.44;101264.22;6219542;23;20170;-76
2023/10/14 09:46:03;;;;;;;9.13;1.67;;;;;;;13.22;78.21;101271.94;6192390;23;20478;-76
2023/10/14 09:48:34;;;;;;;7.15;1.50;;;;;;;13.13;77.04;101282.63;6218750;23;20024;-76
2023/10/14 09:51:07;;;;;;;10.23;2.33;;;;;;;12.96;78.13;101293.56;6192384;23;20096;-76
2023/10/14 09:53:37;;;;;;;7.63;1.83;;;;;;;12.88;78.65;101297.69;6219152;23;20458;-77
2023/10/14 09:56:08;;;;;;;7.93;1.90;;;;;;;12.73;78.60;101296.78;6219340;23;20013;-78
2023/10/14 09:58:36;;;;;;;;;;;;;;;12.62;80.83;101296.44;6219920;23;20020;-79
2023/10/14 10:01:05;;;;;;;5.78;1.73;;;;;;;12.55;81.43;101304.69;6192918;23;19962;-79
2023/10/14 10:03:36;;;;;;;10.80;2.03;;;;;;;12.45;82.48;101311.19;6219162;23;20017;-78
2023/10/14 10:06:35;;;;;;;9.85;1.83;;;;;;;12.43;83.83;101316.22;6219104;23;20025;-81
2023/10/14 10:09:37;;;;;;;9.60;1.83;;;;;;;12.73;84.71;101314.72;6218882;23;20013;-79
2023/10/14 10:12:08;;;;;;;6.45;2.30;;;;;;;12.86;82.97;101313.41;6218631;23;20016;-76
2023/10/14 10:14:42;;;;;;;;;;;;;;;12.79;83.73;101313.72;6192570;23;20028;-79
2023/10/14 10:17:11;;;;;;;22.23;2.67;;;;;;;12.63;82.86;101309.34;6192169;23;20015;-77
2023/10/14 10:20:24;;;;;;;13.80;2.03;;;;;;;12.72;84.17;101313.25;6218212;23;20013;-79
2023/10/14 10:22:52;;;;;;;6.50;1.55;;;;;;;12.83;82.01;101306.28;6192411;23;20111;-76
2023/10/14 10:25:52;;;;;;;4.97;1.52;;;;;;;13.05;83.20;101318.81;6218990;23;20095;-77
2023/10/14 10:28:27;;;;;;;7.43;1.70;;;;;;;13.20;79.22;101311.75;6186926;23;20083;-77
2023/10/14 10:31:07;;;;;;;5.63;1.80;;;;;;;13.29;78.17;101325.13;6192838;23;20017;-79
2023/10/14 10:33:55;;;;;;;6.05;1.98;;;;;;;13.22;77.02;101320.06;6218431;23;20021;-78
2023/10/14 10:36:30;;;;;;;7.55;1.60;;;;;;;13.13;77.15;101328.81;6193626;23;20017;-79
2023/10/14 10:39:16;;;;;;;8.55;1.70;;;;;;;13.13;77.90;101342.16;6222581;23;20020;-87
2023/10/14 10:41:48;;;;;;;4.88;1.27;;;;;;;12.97;74.31;101351.16;6198285;23;20451;-90
2023/10/14 10:44:18;;;;;;;5.35;1.33;;;;;;;12.82;72.41;101358.22;6195054;23;20006;-90
2023/10/14 10:46:47;;;;;;;7.22;1.45;;;;;;;12.68;73.63;101366.78;6194853;23;20021;-88
2023/10/14 10:49:16;;;;;;;8.05;1.52;;;;;;;12.57;73.87;101350.41;6167762;23;20028;-90
2023/10/14 10:52:12;;;;;;;4.47;1.30;;;;;;;12.57;76.43;101350.41;6192910;23;20024;-89
2023/10/14 10:54:42;;;;;;;9.93;1.33;;;;;;;12.55;76.20;101360.78;6192591;23;20365;-89
2023/10/14 10:57:12;;;;;;;7.95;1.65;;;;;;;12.54;76.67;101351.28;6219780;23;20027;-90
2023/10/14 10:59:40;;;;;;;8.52;1.48;;;;;;;12.61;77.19;101353.69;6221443;23;20700;-89
2023/10/14 11:02:10;;;;;;;11.07;1.85;;;;;;;12.68;78.13;101356.09;6195644;23;20013;-90
2023/10/14 11:04:41;;;;;;;4.47;1.55;;;;;;;12.78;77.22;101354.22;6196174;23;20088;-90
2023/10/14 11:07:12;;;;;;;7.47;1.52;;;;;;;12.91;79.05;101352.19;6223617;23;20037;-91
2023/10/14 11:09:39;;;;;;;9.45;1.77;;;;;;;13.02;78.80;101350.59;6223274;23;20013;-91
2023/10/14 11:12:10;;;;;;;8.68;1.67;;;;;;;13.15;77.84;101347.06;6196892;23;20028;-92
2023/10/14 11:14:38;;;;;;;8.32;1.90;;;;;;;13.23;77.79;101345.59;6196639;23;20019;-88
2023/10/14 11:17:06;;;;;;;11.68;2.10;;;;;;;13.29;76.33;101352.59;6197900;23;20021;-90
2023/10/14 11:19:33;;;;;;;7.40;1.88;;;;;;;13.39;75.98;101352.63;6224679;23;20285;-90
2023/10/14 11:22:01;;;;;;;12.90;1.90;;;;;;;13.41;76.28;101347.59;6193864;23;20482;-89
2023/10/14 11:24:30;;;;;;;12.27;1.77;;;;;;;13.51;76.63;101344.47;6194451;23;20021;-93
2023/10/14 11:26:59;;;;;;;9.40;1.63;;;;;;;13.62;75.31;101354.72;6196774;23;20774;-92
2023/10/14 11:29:27;;;;;;;14.90;1.92;;;;;;;13.66;73.13;101361.41;6196842;23;20021;-91
2023/10/14 11:31:57;;;;;;;5.18;1.40;;;;;;;13.76;69.75;101353.41;6196237;23;20017;-80
2023/10/14 11:34:24;;;;;;;9.25;1.52;;;;;;;13.80;67.46;101365.44;6221881;23;20005;-87
2023/10/14 11:36:51;;;;;;;7.07;1.83;;;;;;;13.91;66.83;101373.03;6221166;23;20036;-92
2023/10/14 11:39:21;;;;;;;3.85;1.58;;;;;;;13.99;65.73;101371.53;6168614;23;20406;-91
2023/10/14 11:41:51;;;;;;;7.40;1.33;;;;;;;14.10;65.94;101400.50;6194132;23;20089;-87
2023/10/14 11:44:18;;;;;;;5.30;1.10;;;;;;;13.94;65.02;101404.25;6193762;23;20112;-87
2023/10/14 11:46:46;;;;;;;7.57;1.23;;;;;;;13.59;65.63;101398.44;6221963;23;20017;-89
2023/10/14 11:49:14;;;;;;;4.45;1.25;;;;;;;13.42;66.46;101403.31;6193541;23;20096;-89
2023/10/14 11:51:42;;;;;;;4.82;1.40;;;;;;;13.28;67.90;101395.81;6194624;23;20076;-89
2023/10/14 11:54:12;;;;;;;3.70;1.40;;;;;;;13.20;67.94;101395.34;6193271;23;20443;-86
2023/10/14 11:56:40;;;;;;;6.68;1.63;;;;;;;13.28;69.05;101393.16;6219859;23;20394;-86
2023/10/14 11:59:08;;;;;;;6.00;1.98;;;;;;;13.40;69.34;101394.22;6193577;23;20037;-86
2023/10/14 12:01:34;;;;;;;5.00;1.40;;;;;;;13.46;70.06;101389.78;6193295;23;20427;-86
2023/10/14 12:04:02;;;;;;;6.65;1.70;;;;;;;13.63;69.77;101391.72;6168806;23;20080;-87
2023/10/14 12:06:30;;;;;;;7.78;1.88;;;;;;;13.72;71.00;101388.31;6219320;23;20021;-87
2023/10/14 12:08:57;;;;;;;6.32;1.48;;;;;;;13.81;69.67;101384.91;6193195;23;20546;-86
2023/10/14 12:11:24;;;;;;;5.60;1.80;;;;;;;13.93;69.61;101402.78;6192135;23;20096;-87